EWG84P EDDW-EDDM
Flight info
| Callsign | EWG84P |
|---|---|
| Flight time | 0h 56m |
| Altitude | 35000 |
| Route | NIE2M NIE Z88 SAS DCT KUMER DCT SODRO/N0433F310 T703 LULAR/N0430F300 T105 LANDU LANDU2B |
| Aircraft | A320/M-SDE3FGHIRWY/LB1 |
Departure
| Time | 2026-05-06 16:49 |
|---|---|
| Airport | Bremen Airport (EDDW) |
Arrival
| Time | 2026-05-06 17:45 |
|---|---|
| Airport | Munich Airport (EDDM) |
| Time | Latitude | Longitude | Altitude | Speed | Heading |
|---|---|---|---|---|---|
| 2026-05-06 16:29 | 53.05210 | 8.78479 | 19 ft | 0 kts | 37° |
| 2026-05-06 16:42 | 53.05209 | 8.78477 | 19 ft | 2 kts | 37° |
| 2026-05-06 16:42 | 53.05196 | 8.78461 | 18 ft | 2 kts | 34° |
| 2026-05-06 16:43 | 53.05182 | 8.78446 | 21 ft | 2 kts | 31° |
| 2026-05-06 16:43 | 53.05168 | 8.78433 | 22 ft | 2 kts | 25° |
| 2026-05-06 16:43 | 53.05153 | 8.78422 | 22 ft | 2 kts | 11° |
| 2026-05-06 16:43 | 53.05137 | 8.78421 | 22 ft | 2 kts | 332° |
| 2026-05-06 16:44 | 53.05126 | 8.78433 | 21 ft | 1 kts | 313° |
| 2026-05-06 16:44 | 53.05125 | 8.78435 | 21 ft | 0 kts | 313° |
| 2026-05-06 16:45 | 53.05142 | 8.78403 | 22 ft | 6 kts | 306° |
| 2026-05-06 16:45 | 53.05158 | 8.78353 | 21 ft | 6 kts | 299° |
| 2026-05-06 16:46 | 53.05184 | 8.78221 | 20 ft | 18 kts | 283° |
| 2026-05-06 16:46 | 53.05174 | 8.78021 | 21 ft | 18 kts | 245° |
| 2026-05-06 16:46 | 53.05103 | 8.77864 | 21 ft | 16 kts | 227° |
| 2026-05-06 16:46 | 53.05034 | 8.77739 | 21 ft | 14 kts | 227° |
| 2026-05-06 16:47 | 53.04975 | 8.77634 | 22 ft | 11 kts | 227° |
| 2026-05-06 16:47 | 53.04923 | 8.77547 | 21 ft | 11 kts | 215° |
| 2026-05-06 16:47 | 53.04858 | 8.77486 | 20 ft | 10 kts | 204° |
| 2026-05-06 16:47 | 53.04801 | 8.77460 | 21 ft | 3 kts | 192° |
| 2026-05-06 16:48 | 53.04787 | 8.77455 | 21 ft | 1 kts | 192° |
| 2026-05-06 16:48 | 53.04748 | 8.77448 | 21 ft | 13 kts | 180° |
| 2026-05-06 16:48 | 53.04658 | 8.77461 | 19 ft | 7 kts | 149° |
| 2026-05-06 16:48 | 53.04657 | 8.77558 | 18 ft | 16 kts | 87° |
| 2026-05-06 16:49 | 53.04674 | 8.78173 | 19 ft | 91 kts | 88° |
| 2026-05-06 16:49 | 53.04706 | 8.79563 | 39 ft | 149 kts | 86° |
| 2026-05-06 16:49 | 53.04730 | 8.81256 | 764 ft | 145 kts | 84° |
| 2026-05-06 16:49 | 53.04779 | 8.82937 | 1520 ft | 149 kts | 83° |
| 2026-05-06 16:50 | 53.04844 | 8.84737 | 1896 ft | 167 kts | 84° |
| 2026-05-06 16:50 | 53.04605 | 8.86756 | 2178 ft | 195 kts | 117° |
| 2026-05-06 16:50 | 53.03792 | 8.88733 | 2455 ft | 221 kts | 128° |
| 2026-05-06 16:50 | 53.02520 | 8.90430 | 2834 ft | 248 kts | 143° |
| 2026-05-06 16:51 | 53.01058 | 8.92118 | 3483 ft | 261 kts | 143° |
| 2026-05-06 16:51 | 52.99555 | 8.93867 | 4334 ft | 266 kts | 144° |
| 2026-05-06 16:51 | 52.98030 | 8.95652 | 5215 ft | 270 kts | 144° |
| 2026-05-06 16:51 | 52.96488 | 8.97464 | 6081 ft | 274 kts | 145° |
| 2026-05-06 16:52 | 52.94926 | 8.99303 | 6911 ft | 277 kts | 146° |
| 2026-05-06 16:52 | 52.93345 | 9.01166 | 7716 ft | 281 kts | 147° |
| 2026-05-06 16:52 | 52.91744 | 9.03059 | 8536 ft | 285 kts | 147° |
| 2026-05-06 16:52 | 52.90123 | 9.04972 | 9358 ft | 288 kts | 147° |
| 2026-05-06 16:53 | 52.88482 | 9.06904 | 10154 ft | 291 kts | 147° |
| 2026-05-06 16:53 | 52.86820 | 9.08859 | 10874 ft | 295 kts | 147° |
| 2026-05-06 16:53 | 52.85138 | 9.10840 | 11621 ft | 299 kts | 147° |
| 2026-05-06 16:53 | 52.83436 | 9.12842 | 12405 ft | 302 kts | 147° |
| 2026-05-06 16:54 | 52.81717 | 9.14859 | 13221 ft | 305 kts | 147° |
| 2026-05-06 16:54 | 52.80000 | 9.16871 | 13954 ft | 309 kts | 146° |
| 2026-05-06 16:54 | 52.78236 | 9.18936 | 14632 ft | 313 kts | 146° |
| 2026-05-06 16:54 | 52.76451 | 9.21030 | 15296 ft | 317 kts | 146° |
| 2026-05-06 16:55 | 52.74630 | 9.23162 | 15723 ft | 329 kts | 147° |
| 2026-05-06 16:55 | 52.72701 | 9.25415 | 15854 ft | 349 kts | 146° |
| 2026-05-06 16:55 | 52.70665 | 9.27785 | 16028 ft | 365 kts | 146° |
| 2026-05-06 16:55 | 52.68585 | 9.30206 | 16504 ft | 372 kts | 146° |
| 2026-05-06 16:56 | 52.66441 | 9.32701 | 17059 ft | 376 kts | 146° |
| 2026-05-06 16:56 | 52.64291 | 9.35207 | 17628 ft | 380 kts | 146° |
| 2026-05-06 16:56 | 52.62129 | 9.37756 | 18177 ft | 384 kts | 144° |
| 2026-05-06 16:56 | 52.60011 | 9.40471 | 18679 ft | 388 kts | 142° |
| 2026-05-06 16:57 | 52.57933 | 9.43321 | 19180 ft | 391 kts | 141° |
| 2026-05-06 16:57 | 52.55887 | 9.46217 | 19682 ft | 394 kts | 141° |
| 2026-05-06 16:57 | 52.53813 | 9.49177 | 20182 ft | 397 kts | 141° |
| 2026-05-06 16:57 | 52.51716 | 9.52148 | 20680 ft | 400 kts | 141° |
| 2026-05-06 16:58 | 52.49591 | 9.55114 | 21156 ft | 402 kts | 142° |
| 2026-05-06 16:58 | 52.47437 | 9.58079 | 21636 ft | 405 kts | 142° |
| 2026-05-06 16:58 | 52.45266 | 9.61042 | 22112 ft | 408 kts | 143° |
| 2026-05-06 16:58 | 52.43071 | 9.64025 | 22581 ft | 411 kts | 143° |
| 2026-05-06 16:59 | 52.40867 | 9.67019 | 23031 ft | 413 kts | 143° |
| 2026-05-06 16:59 | 52.38639 | 9.70040 | 23473 ft | 416 kts | 143° |
| 2026-05-06 16:59 | 52.36403 | 9.73077 | 23835 ft | 419 kts | 143° |
| 2026-05-06 16:59 | 52.34152 | 9.76132 | 24184 ft | 422 kts | 144° |
| 2026-05-06 17:00 | 52.31881 | 9.79212 | 24539 ft | 425 kts | 144° |
| 2026-05-06 17:00 | 52.29596 | 9.82306 | 24918 ft | 427 kts | 144° |
| 2026-05-06 17:00 | 52.27298 | 9.85411 | 25277 ft | 429 kts | 144° |
| 2026-05-06 17:00 | 52.25008 | 9.88447 | 25630 ft | 430 kts | 148° |
| 2026-05-06 17:01 | 52.22531 | 9.91156 | 25966 ft | 430 kts | 151° |
| 2026-05-06 17:01 | 52.20025 | 9.93841 | 26338 ft | 432 kts | 152° |
| 2026-05-06 17:01 | 52.17503 | 9.96541 | 26729 ft | 434 kts | 152° |
| 2026-05-06 17:01 | 52.14969 | 9.99245 | 27102 ft | 436 kts | 152° |
| 2026-05-06 17:02 | 52.12417 | 10.01954 | 27468 ft | 438 kts | 152° |
| 2026-05-06 17:02 | 52.09857 | 10.04669 | 27841 ft | 440 kts | 152° |
| 2026-05-06 17:02 | 52.07287 | 10.07399 | 28203 ft | 441 kts | 152° |
| 2026-05-06 17:02 | 52.04715 | 10.10132 | 28582 ft | 442 kts | 152° |
| 2026-05-06 17:03 | 52.02139 | 10.12870 | 28938 ft | 443 kts | 152° |
| 2026-05-06 17:03 | 51.99557 | 10.15610 | 29279 ft | 445 kts | 152° |
| 2026-05-06 17:03 | 51.96957 | 10.18366 | 29591 ft | 446 kts | 152° |
| 2026-05-06 17:03 | 51.94352 | 10.21122 | 29883 ft | 448 kts | 152° |
| 2026-05-06 17:04 | 51.91735 | 10.23886 | 30140 ft | 449 kts | 152° |
| 2026-05-06 17:04 | 51.89110 | 10.26652 | 30390 ft | 451 kts | 152° |
| 2026-05-06 17:04 | 51.86476 | 10.29421 | 30596 ft | 453 kts | 153° |
| 2026-05-06 17:04 | 51.83827 | 10.32199 | 30828 ft | 455 kts | 153° |
| 2026-05-06 17:05 | 51.81166 | 10.34985 | 31150 ft | 454 kts | 153° |
| 2026-05-06 17:05 | 51.78553 | 10.37719 | 31526 ft | 452 kts | 153° |
| 2026-05-06 17:05 | 51.75918 | 10.40474 | 31911 ft | 450 kts | 153° |
| 2026-05-06 17:05 | 51.73288 | 10.43222 | 32316 ft | 449 kts | 153° |
| 2026-05-06 17:06 | 51.70667 | 10.45957 | 32693 ft | 448 kts | 153° |
| 2026-05-06 17:06 | 51.68053 | 10.48683 | 33049 ft | 446 kts | 153° |
| 2026-05-06 17:06 | 51.65450 | 10.51390 | 33399 ft | 445 kts | 153° |
| 2026-05-06 17:06 | 51.62845 | 10.54089 | 33751 ft | 444 kts | 154° |
| 2026-05-06 17:07 | 51.60249 | 10.56775 | 34054 ft | 443 kts | 153° |
| 2026-05-06 17:07 | 51.57655 | 10.59452 | 34325 ft | 443 kts | 153° |
| 2026-05-06 17:07 | 51.55063 | 10.62128 | 34574 ft | 442 kts | 153° |
| 2026-05-06 17:07 | 51.52481 | 10.64818 | 34727 ft | 442 kts | 152° |
| 2026-05-06 17:08 | 51.49944 | 10.67611 | 34778 ft | 440 kts | 150° |
| 2026-05-06 17:08 | 51.45032 | 10.73311 | 34775 ft | 438 kts | 149° |
| 2026-05-06 17:09 | 51.40097 | 10.79058 | 34773 ft | 438 kts | 150° |
| 2026-05-06 17:09 | 51.35143 | 10.84707 | 34769 ft | 437 kts | 150° |
| 2026-05-06 17:10 | 51.30166 | 10.90307 | 34770 ft | 437 kts | 150° |
| 2026-05-06 17:10 | 51.25196 | 10.95900 | 34772 ft | 437 kts | 150° |
| 2026-05-06 17:11 | 51.20259 | 11.01463 | 34756 ft | 437 kts | 150° |
| 2026-05-06 17:11 | 51.15295 | 11.07032 | 34743 ft | 437 kts | 150° |
| 2026-05-06 17:12 | 51.10319 | 11.12594 | 34749 ft | 437 kts | 150° |
| 2026-05-06 17:12 | 51.05334 | 11.18153 | 34747 ft | 438 kts | 150° |
| 2026-05-06 17:13 | 51.00343 | 11.23709 | 34742 ft | 438 kts | 150° |
| 2026-05-06 17:13 | 50.95348 | 11.29256 | 34756 ft | 438 kts | 150° |
| 2026-05-06 17:14 | 50.90356 | 11.34782 | 34767 ft | 438 kts | 151° |
| 2026-05-06 17:14 | 50.85356 | 11.40298 | 34751 ft | 438 kts | 150° |
| 2026-05-06 17:15 | 50.80354 | 11.45800 | 34763 ft | 438 kts | 151° |
| 2026-05-06 17:15 | 50.75351 | 11.51290 | 34757 ft | 438 kts | 151° |
| 2026-05-06 17:16 | 50.70374 | 11.56732 | 34774 ft | 437 kts | 151° |
| 2026-05-06 17:16 | 50.65377 | 11.62189 | 34776 ft | 436 kts | 151° |
| 2026-05-06 17:17 | 50.60383 | 11.67634 | 34783 ft | 436 kts | 151° |
| 2026-05-06 17:17 | 50.55393 | 11.73071 | 34765 ft | 436 kts | 151° |
| 2026-05-06 17:18 | 50.50424 | 11.78456 | 34774 ft | 436 kts | 151° |
| 2026-05-06 17:18 | 50.45324 | 11.83508 | 34777 ft | 429 kts | 161° |
| 2026-05-06 17:19 | 50.39858 | 11.87207 | 34786 ft | 427 kts | 162° |
| 2026-05-06 17:19 | 50.34394 | 11.90889 | 34786 ft | 427 kts | 162° |
| 2026-05-06 17:20 | 50.28928 | 11.94579 | 34790 ft | 428 kts | 162° |
| 2026-05-06 17:20 | 50.23456 | 11.98269 | 34786 ft | 427 kts | 162° |
| 2026-05-06 17:21 | 50.17999 | 12.01943 | 34771 ft | 427 kts | 162° |
| 2026-05-06 17:21 | 50.12584 | 12.05578 | 34765 ft | 427 kts | 162° |
| 2026-05-06 17:22 | 50.07125 | 12.09225 | 34764 ft | 427 kts | 162° |
| 2026-05-06 17:22 | 50.01665 | 12.12874 | 34753 ft | 427 kts | 162° |
| 2026-05-06 17:23 | 49.96201 | 12.16479 | 34760 ft | 424 kts | 166° |
| 2026-05-06 17:23 | 49.93375 | 12.17490 | 34576 ft | 412 kts | 179° |
| 2026-05-06 17:23 | 49.90527 | 12.17855 | 33901 ft | 411 kts | 180° |
| 2026-05-06 17:23 | 49.87630 | 12.18158 | 32560 ft | 423 kts | 181° |
| 2026-05-06 17:24 | 49.84648 | 12.18435 | 31248 ft | 435 kts | 180° |
| 2026-05-06 17:24 | 49.81606 | 12.18723 | 30358 ft | 438 kts | 180° |
| 2026-05-06 17:24 | 49.78570 | 12.19108 | 29527 ft | 438 kts | 178° |
| 2026-05-06 17:24 | 49.75543 | 12.19589 | 28629 ft | 437 kts | 177° |
| 2026-05-06 17:25 | 49.72530 | 12.20125 | 27805 ft | 435 kts | 176° |
| 2026-05-06 17:25 | 49.69532 | 12.20677 | 27068 ft | 431 kts | 176° |
| 2026-05-06 17:25 | 49.66572 | 12.21215 | 26412 ft | 426 kts | 176° |
| 2026-05-06 17:25 | 49.63638 | 12.21725 | 25800 ft | 421 kts | 176° |
| 2026-05-06 17:26 | 49.60774 | 12.22200 | 25162 ft | 417 kts | 176° |
| 2026-05-06 17:26 | 49.57914 | 12.22660 | 24717 ft | 406 kts | 176° |
| 2026-05-06 17:26 | 49.55190 | 12.23094 | 24457 ft | 382 kts | 177° |
| 2026-05-06 17:26 | 49.52598 | 12.23506 | 24190 ft | 369 kts | 177° |
| 2026-05-06 17:27 | 49.50055 | 12.23907 | 23959 ft | 365 kts | 177° |
| 2026-05-06 17:27 | 49.47537 | 12.24307 | 23731 ft | 362 kts | 177° |
| 2026-05-06 17:27 | 49.45034 | 12.24706 | 23490 ft | 360 kts | 177° |
| 2026-05-06 17:27 | 49.42559 | 12.25100 | 23071 ft | 356 kts | 176° |
| 2026-05-06 17:28 | 49.40108 | 12.25499 | 22605 ft | 352 kts | 176° |
| 2026-05-06 17:28 | 49.37811 | 12.25875 | 22164 ft | 349 kts | 176° |
| 2026-05-06 17:28 | 49.36184 | 12.26141 | 21857 ft | 347 kts | 176° |
| 2026-05-06 17:28 | 49.33788 | 12.26527 | 21393 ft | 345 kts | 176° |
| 2026-05-06 17:29 | 49.31435 | 12.26904 | 20943 ft | 344 kts | 176° |
| 2026-05-06 17:29 | 49.29063 | 12.27285 | 20488 ft | 342 kts | 176° |
| 2026-05-06 17:29 | 49.26693 | 12.27668 | 20023 ft | 341 kts | 176° |
| 2026-05-06 17:29 | 49.24336 | 12.28049 | 19565 ft | 341 kts | 176° |
| 2026-05-06 17:30 | 49.21978 | 12.28424 | 19118 ft | 340 kts | 176° |
| 2026-05-06 17:30 | 49.19619 | 12.28799 | 18655 ft | 340 kts | 176° |
| 2026-05-06 17:30 | 49.17270 | 12.29172 | 18201 ft | 339 kts | 176° |
| 2026-05-06 17:30 | 49.14928 | 12.29547 | 17708 ft | 338 kts | 176° |
| 2026-05-06 17:31 | 49.12588 | 12.29921 | 17254 ft | 336 kts | 176° |
| 2026-05-06 17:31 | 49.10268 | 12.30290 | 16807 ft | 334 kts | 176° |
| 2026-05-06 17:31 | 49.07989 | 12.30654 | 16375 ft | 332 kts | 176° |
| 2026-05-06 17:31 | 49.05697 | 12.31019 | 15945 ft | 330 kts | 176° |
| 2026-05-06 17:32 | 49.03415 | 12.31381 | 15516 ft | 329 kts | 176° |
| 2026-05-06 17:32 | 49.01142 | 12.31732 | 15088 ft | 328 kts | 178° |
| 2026-05-06 17:32 | 48.98864 | 12.31735 | 14694 ft | 324 kts | 184° |
| 2026-05-06 17:32 | 48.96640 | 12.31579 | 14296 ft | 322 kts | 185° |
| 2026-05-06 17:33 | 48.94397 | 12.31407 | 13905 ft | 321 kts | 185° |
| 2026-05-06 17:33 | 48.92171 | 12.31236 | 13513 ft | 320 kts | 185° |
| 2026-05-06 17:33 | 48.89957 | 12.31064 | 13078 ft | 318 kts | 185° |
| 2026-05-06 17:33 | 48.87751 | 12.30887 | 12655 ft | 316 kts | 185° |
| 2026-05-06 17:34 | 48.85559 | 12.30705 | 12246 ft | 315 kts | 185° |
| 2026-05-06 17:34 | 48.83380 | 12.30511 | 11843 ft | 312 kts | 185° |
| 2026-05-06 17:34 | 48.81219 | 12.30311 | 11442 ft | 310 kts | 185° |
| 2026-05-06 17:34 | 48.79070 | 12.30107 | 11033 ft | 309 kts | 185° |
| 2026-05-06 17:35 | 48.76931 | 12.29900 | 10619 ft | 307 kts | 185° |
| 2026-05-06 17:35 | 48.74829 | 12.29704 | 10235 ft | 297 kts | 185° |
| 2026-05-06 17:35 | 48.72810 | 12.29524 | 9847 ft | 285 kts | 185° |
| 2026-05-06 17:36 | 48.68852 | 12.29160 | 9044 ft | 284 kts | 185° |
| 2026-05-06 17:36 | 48.66883 | 12.28970 | 8632 ft | 283 kts | 185° |
| 2026-05-06 17:36 | 48.64917 | 12.28777 | 8218 ft | 282 kts | 185° |
| 2026-05-06 17:36 | 48.63039 | 12.28586 | 7826 ft | 273 kts | 185° |
| 2026-05-06 17:37 | 48.61115 | 12.28388 | 7416 ft | 267 kts | 185° |
| 2026-05-06 17:37 | 48.59287 | 12.28200 | 7034 ft | 266 kts | 185° |
| 2026-05-06 17:37 | 48.57447 | 12.27725 | 6640 ft | 265 kts | 193° |
| 2026-05-06 17:37 | 48.55688 | 12.27047 | 6258 ft | 264 kts | 194° |
| 2026-05-06 17:38 | 48.53909 | 12.26332 | 5866 ft | 265 kts | 194° |
| 2026-05-06 17:38 | 48.52108 | 12.25604 | 5462 ft | 263 kts | 195° |
| 2026-05-06 17:38 | 48.50365 | 12.24907 | 5214 ft | 263 kts | 194° |
| 2026-05-06 17:38 | 48.48602 | 12.24199 | 5014 ft | 262 kts | 194° |
| 2026-05-06 17:39 | 48.46841 | 12.23489 | 4956 ft | 261 kts | 194° |
| 2026-05-06 17:39 | 48.45110 | 12.22599 | 4820 ft | 264 kts | 203° |
| 2026-05-06 17:39 | 48.43453 | 12.21438 | 4616 ft | 261 kts | 210° |
| 2026-05-06 17:39 | 48.42141 | 12.19613 | 4362 ft | 256 kts | 232° |
| 2026-05-06 17:40 | 48.41116 | 12.17466 | 4127 ft | 249 kts | 234° |
| 2026-05-06 17:40 | 48.40146 | 12.15370 | 3992 ft | 238 kts | 235° |
| 2026-05-06 17:40 | 48.39248 | 12.13370 | 3978 ft | 223 kts | 243° |
| 2026-05-06 17:40 | 48.38855 | 12.11216 | 3997 ft | 207 kts | 263° |
| 2026-05-06 17:41 | 48.38705 | 12.09133 | 3998 ft | 194 kts | 264° |
| 2026-05-06 17:41 | 48.38563 | 12.07153 | 4000 ft | 188 kts | 263° |
| 2026-05-06 17:41 | 48.38421 | 12.05212 | 4001 ft | 186 kts | 263° |
| 2026-05-06 17:41 | 48.38278 | 12.03279 | 4005 ft | 186 kts | 263° |
| 2026-05-06 17:42 | 48.38134 | 12.01346 | 3941 ft | 185 kts | 263° |
| 2026-05-06 17:42 | 48.37992 | 11.99444 | 3775 ft | 180 kts | 263° |
| 2026-05-06 17:42 | 48.37856 | 11.97621 | 3538 ft | 172 kts | 264° |
| 2026-05-06 17:42 | 48.37726 | 11.95879 | 3317 ft | 164 kts | 264° |
| 2026-05-06 17:43 | 48.37601 | 11.94220 | 3103 ft | 154 kts | 264° |
| 2026-05-06 17:43 | 48.37485 | 11.92677 | 2928 ft | 142 kts | 264° |
| 2026-05-06 17:43 | 48.37375 | 11.91212 | 2727 ft | 139 kts | 264° |
| 2026-05-06 17:43 | 48.37267 | 11.89779 | 2525 ft | 137 kts | 264° |
| 2026-05-06 17:44 | 48.37160 | 11.88362 | 2330 ft | 136 kts | 262° |
| 2026-05-06 17:44 | 48.37054 | 11.86957 | 2138 ft | 135 kts | 262° |
| 2026-05-06 17:44 | 48.36946 | 11.85534 | 1939 ft | 138 kts | 261° |
| 2026-05-06 17:44 | 48.36838 | 11.84105 | 1762 ft | 136 kts | 261° |
| 2026-05-06 17:45 | 48.36737 | 11.82705 | 1604 ft | 134 kts | 261° |
| 2026-05-06 17:45 | 48.36623 | 11.81330 | 1482 ft | 125 kts | 265° |
| 2026-05-06 17:45 | 48.36555 | 11.80385 | 1485 ft | 48 kts | 263° |
| 2026-05-06 17:45 | 48.36523 | 11.80025 | 1475 ft | 31 kts | 261° |
| 2026-05-06 17:46 | 48.36467 | 11.79733 | 1481 ft | 28 kts | 235° |
| 2026-05-06 17:46 | 48.36391 | 11.79581 | 1479 ft | 11 kts | 232° |
| 2026-05-06 17:46 | 48.36341 | 11.79479 | 1471 ft | 13 kts | 233° |
| 2026-05-06 17:46 | 48.36283 | 11.79363 | 1475 ft | 15 kts | 233° |
| 2026-05-06 17:47 | 48.36189 | 11.79297 | 1479 ft | 19 kts | 170° |
| 2026-05-06 17:47 | 48.36043 | 11.79320 | 1485 ft | 22 kts | 174° |
| 2026-05-06 17:47 | 48.35914 | 11.79355 | 1477 ft | 8 kts | 158° |
| 2026-05-06 17:47 | 48.35898 | 11.79321 | 1478 ft | 5 kts | 255° |
| 2026-05-06 17:48 | 48.35894 | 11.79256 | 1485 ft | 8 kts | 263° |
| 2026-05-06 17:48 | 48.35890 | 11.79209 | 1474 ft | 0 kts | 263° |
| 2026-05-06 17:48 | 48.35891 | 11.79217 | 1485 ft | 0 kts | 263° |
| 2026-05-06 17:48 | 48.35891 | 11.79218 | 1485 ft | 0 kts | 263° |